sensor_id;sensor_type;location;lat;lon;timestamp;P1;durP1;ratioP1;P2;durP2;ratioP2
3993;SDS011;2011;48.238;13.948;2023-02-28T00:01:25;6.90;;;4.35;;
3993;SDS011;2011;48.238;13.948;2023-02-28T00:03:52;7.65;;;4.55;;
3993;SDS011;2011;48.238;13.948;2023-02-28T00:06:19;9.00;;;5.25;;
3993;SDS011;2011;48.238;13.948;2023-02-28T00:08:47;9.05;;;5.30;;
3993;SDS011;2011;48.238;13.948;2023-02-28T00:11:15;10.50;;;6.07;;
3993;SDS011;2011;48.238;13.948;2023-02-28T00:13:44;8.73;;;5.30;;
3993;SDS011;2011;48.238;13.948;2023-02-28T00:16:13;11.88;;;5.60;;
3993;SDS011;2011;48.238;13.948;2023-02-28T00:18:41;8.73;;;4.95;;
3993;SDS011;2011;48.238;13.948;2023-02-28T00:21:08;10.48;;;6.13;;
3993;SDS011;2011;48.238;13.948;2023-02-28T00:23:35;9.38;;;5.38;;
3993;SDS011;2011;48.238;13.948;2023-02-28T00:26:03;11.18;;;6.22;;
3993;SDS011;2011;48.238;13.948;2023-02-28T00:28:32;12.70;;;6.07;;
3993;SDS011;2011;48.238;13.948;2023-02-28T00:30:59;12.63;;;6.10;;
3993;SDS011;2011;48.238;13.948;2023-02-28T00:33:26;12.75;;;6.85;;
3993;SDS011;2011;48.238;13.948;2023-02-28T00:36:00;11.05;;;6.45;;
3993;SDS011;2011;48.238;13.948;2023-02-28T00:38:28;10.05;;;6.63;;
3993;SDS011;2011;48.238;13.948;2023-02-28T00:40:55;13.15;;;6.70;;
3993;SDS011;2011;48.238;13.948;2023-02-28T00:43:23;16.80;;;6.72;;
3993;SDS011;2011;48.238;13.948;2023-02-28T00:45:51;11.50;;;6.80;;
3993;SDS011;2011;48.238;13.948;2023-02-28T00:48:18;11.20;;;6.55;;
3993;SDS011;2011;48.238;13.948;2023-02-28T00:50:47;11.27;;;6.57;;
3993;SDS011;2011;48.238;13.948;2023-02-28T00:53:15;13.98;;;7.10;;
3993;SDS011;2011;48.238;13.948;2023-02-28T00:55:42;11.30;;;6.50;;
3993;SDS011;2011;48.238;13.948;2023-02-28T00:58:09;11.43;;;7.35;;
3993;SDS011;2011;48.238;13.948;2023-02-28T01:00:36;14.02;;;7.15;;
3993;SDS011;2011;48.238;13.948;2023-02-28T01:03:04;18.05;;;7.70;;
3993;SDS011;2011;48.238;13.948;2023-02-28T01:05:31;16.92;;;8.00;;
3993;SDS011;2011;48.238;13.948;2023-02-28T01:07:58;11.43;;;6.65;;
3993;SDS011;2011;48.238;13.948;2023-02-28T01:10:25;12.55;;;6.63;;
3993;SDS011;2011;48.238;13.948;2023-02-28T01:12:56;15.18;;;6.63;;
3993;SDS011;2011;48.238;13.948;2023-02-28T01:15:23;15.35;;;7.95;;
3993;SDS011;2011;48.238;13.948;2023-02-28T01:17:50;14.73;;;7.20;;
3993;SDS011;2011;48.238;13.948;2023-02-28T01:20:18;13.65;;;7.15;;
3993;SDS011;2011;48.238;13.948;2023-02-28T01:22:45;13.52;;;8.50;;
3993;SDS011;2011;48.238;13.948;2023-02-28T01:25:12;14.05;;;8.35;;
3993;SDS011;2011;48.238;13.948;2023-02-28T01:27:39;13.48;;;8.10;;
3993;SDS011;2011;48.238;13.948;2023-02-28T01:30:07;12.52;;;7.45;;
3993;SDS011;2011;48.238;13.948;2023-02-28T01:32:34;13.15;;;7.80;;
3993;SDS011;2011;48.238;13.948;2023-02-28T01:35:02;13.45;;;7.95;;
3993;SDS011;2011;48.238;13.948;2023-02-28T01:37:30;15.68;;;8.38;;
3993;SDS011;2011;48.238;13.948;2023-02-28T01:39:57;14.88;;;7.47;;
3993;SDS011;2011;48.238;13.948;2023-02-28T01:42:24;14.38;;;8.52;;
3993;SDS011;2011;48.238;13.948;2023-02-28T01:44:58;12.20;;;7.80;;
3993;SDS011;2011;48.238;13.948;2023-02-28T01:47:29;13.73;;;7.50;;
3993;SDS011;2011;48.238;13.948;2023-02-28T01:49:58;14.43;;;7.60;;
3993;SDS011;2011;48.238;13.948;2023-02-28T01:52:28;13.25;;;8.02;;
3993;SDS011;2011;48.238;13.948;2023-02-28T01:54:57;14.15;;;8.15;;
3993;SDS011;2011;48.238;13.948;2023-02-28T01:57:28;11.80;;;7.20;;
3993;SDS011;2011;48.238;13.948;2023-02-28T02:00:03;14.70;;;8.10;;
3993;SDS011;2011;48.238;13.948;2023-02-28T02:02:35;12.35;;;7.72;;
3993;SDS011;2011;48.238;13.948;2023-02-28T02:05:03;13.50;;;7.53;;
3993;SDS011;2011;48.238;13.948;2023-02-28T02:07:33;14.32;;;8.20;;
3993;SDS011;2011;48.238;13.948;2023-02-28T02:10:06;18.75;;;8.32;;
3993;SDS011;2011;48.238;13.948;2023-02-28T02:15:32;12.10;;;7.60;;
3993;SDS011;2011;48.238;13.948;2023-02-28T02:18:04;11.82;;;7.90;;
3993;SDS011;2011;48.238;13.948;2023-02-28T02:24:09;13.52;;;7.65;;
3993;SDS011;2011;48.238;13.948;2023-02-28T02:27:07;16.02;;;8.20;;
3993;SDS011;2011;48.238;13.948;2023-02-28T02:29:51;12.00;;;6.90;;
3993;SDS011;2011;48.238;13.948;2023-02-28T02:32:45;16.98;;;8.73;;
3993;SDS011;2011;48.238;13.948;2023-02-28T02:35:36;13.75;;;7.90;;
3993;SDS011;2011;48.238;13.948;2023-02-28T02:38:08;18.27;;;8.07;;
3993;SDS011;2011;48.238;13.948;2023-02-28T02:40:43;18.83;;;8.88;;
3993;SDS011;2011;48.238;13.948;2023-02-28T02:43:16;15.77;;;7.50;;
3993;SDS011;2011;48.238;13.948;2023-02-28T02:45:47;14.00;;;8.43;;
3993;SDS011;2011;48.238;13.948;2023-02-28T02:48:19;14.63;;;7.88;;
3993;SDS011;2011;48.238;13.948;2023-02-28T02:50:52;15.65;;;8.02;;
3993;SDS011;2011;48.238;13.948;2023-02-28T02:53:23;15.10;;;7.32;;
3993;SDS011;2011;48.238;13.948;2023-02-28T02:55:56;15.25;;;8.10;;
3993;SDS011;2011;48.238;13.948;2023-02-28T02:58:27;13.55;;;8.40;;
3993;SDS011;2011;48.238;13.948;2023-02-28T03:00:58;27.13;;;8.80;;
3993;SDS011;2011;48.238;13.948;2023-02-28T03:03:28;17.00;;;8.52;;
3993;SDS011;2011;48.238;13.948;2023-02-28T03:05:58;15.45;;;8.85;;
3993;SDS011;2011;48.238;13.948;2023-02-28T03:08:28;14.65;;;8.10;;
3993;SDS011;2011;48.238;13.948;2023-02-28T03:10:59;21.40;;;8.88;;
3993;SDS011;2011;48.238;13.948;2023-02-28T03:13:42;15.55;;;7.97;;
3993;SDS011;2011;48.238;13.948;2023-02-28T03:16:35;14.95;;;8.30;;
3993;SDS011;2011;48.238;13.948;2023-02-28T03:19:22;12.10;;;7.50;;
3993;SDS011;2011;48.238;13.948;2023-02-28T03:22:14;18.00;;;8.30;;
3993;SDS011;2011;48.238;13.948;2023-02-28T03:24:49;15.43;;;8.13;;
3993;SDS011;2011;48.238;13.948;2023-02-28T03:27:22;13.60;;;8.07;;
3993;SDS011;2011;48.238;13.948;2023-02-28T03:29:56;14.55;;;7.97;;
3993;SDS011;2011;48.238;13.948;2023-02-28T03:32:28;15.88;;;8.32;;
3993;SDS011;2011;48.238;13.948;2023-02-28T03:35:00;14.55;;;7.75;;
3993;SDS011;2011;48.238;13.948;2023-02-28T03:37:35;17.55;;;8.35;;
3993;SDS011;2011;48.238;13.948;2023-02-28T03:40:07;12.05;;;6.80;;
3993;SDS011;2011;48.238;13.948;2023-02-28T03:42:38;16.38;;;8.00;;
3993;SDS011;2011;48.238;13.948;2023-02-28T03:45:10;14.32;;;7.38;;
3993;SDS011;2011;48.238;13.948;2023-02-28T03:47:40;16.08;;;7.97;;
3993;SDS011;2011;48.238;13.948;2023-02-28T03:50:12;11.73;;;7.07;;
3993;SDS011;2011;48.238;13.948;2023-02-28T03:52:47;14.63;;;7.97;;
3993;SDS011;2011;48.238;13.948;2023-02-28T03:55:16;13.88;;;7.55;;
3993;SDS011;2011;48.238;13.948;2023-02-28T03:57:47;15.48;;;7.72;;
3993;SDS011;2011;48.238;13.948;2023-02-28T04:00:25;14.95;;;7.43;;
3993;SDS011;2011;48.238;13.948;2023-02-28T04:02:55;13.55;;;7.15;;
3993;SDS011;2011;48.238;13.948;2023-02-28T04:05:22;12.80;;;7.70;;
3993;SDS011;2011;48.238;13.948;2023-02-28T04:07:51;15.68;;;8.20;;
3993;SDS011;2011;48.238;13.948;2023-02-28T04:10:19;11.45;;;6.93;;
3993;SDS011;2011;48.238;13.948;2023-02-28T04:12:46;12.18;;;7.05;;
3993;SDS011;2011;48.238;13.948;2023-02-28T04:15:13;12.75;;;7.50;;
3993;SDS011;2011;48.238;13.948;2023-02-28T04:17:40;16.70;;;8.00;;
3993;SDS011;2011;48.238;13.948;2023-02-28T04:20:08;15.23;;;8.23;;
3993;SDS011;2011;48.238;13.948;2023-02-28T04:22:36;11.70;;;7.22;;
3993;SDS011;2011;48.238;13.948;2023-02-28T04:25:05;12.02;;;7.68;;
3993;SDS011;2011;48.238;13.948;2023-02-28T04:27:33;10.80;;;6.90;;
3993;SDS011;2011;48.238;13.948;2023-02-28T04:30:00;12.50;;;7.15;;
3993;SDS011;2011;48.238;13.948;2023-02-28T04:32:27;17.63;;;8.30;;
3993;SDS011;2011;48.238;13.948;2023-02-28T04:34:54;12.63;;;6.70;;
3993;SDS011;2011;48.238;13.948;2023-02-28T04:37:21;12.40;;;7.50;;
3993;SDS011;2011;48.238;13.948;2023-02-28T04:39:53;13.43;;;7.28;;
3993;SDS011;2011;48.238;13.948;2023-02-28T04:42:21;16.00;;;7.78;;
3993;SDS011;2011;48.238;13.948;2023-02-28T04:44:48;19.38;;;7.80;;
3993;SDS011;2011;48.238;13.948;2023-02-28T04:47:15;14.93;;;7.78;;
3993;SDS011;2011;48.238;13.948;2023-02-28T04:49:42;12.80;;;7.15;;
3993;SDS011;2011;48.238;13.948;2023-02-28T04:52:09;12.00;;;6.95;;
3993;SDS011;2011;48.238;13.948;2023-02-28T04:54:38;14.60;;;8.13;;
3993;SDS011;2011;48.238;13.948;2023-02-28T04:57:05;13.48;;;7.75;;
3993;SDS011;2011;48.238;13.948;2023-02-28T04:59:33;18.35;;;9.23;;
3993;SDS011;2011;48.238;13.948;2023-02-28T05:02:00;14.45;;;7.70;;
3993;SDS011;2011;48.238;13.948;2023-02-28T05:04:31;16.55;;;8.02;;
3993;SDS011;2011;48.238;13.948;2023-02-28T05:06:59;13.40;;;7.88;;
3993;SDS011;2011;48.238;13.948;2023-02-28T05:09:26;13.77;;;7.50;;
3993;SDS011;2011;48.238;13.948;2023-02-28T05:11:53;14.45;;;8.15;;
3993;SDS011;2011;48.238;13.948;2023-02-28T05:14:20;15.65;;;7.50;;
3993;SDS011;2011;48.238;13.948;2023-02-28T05:16:49;15.02;;;7.85;;
3993;SDS011;2011;48.238;13.948;2023-02-28T05:19:16;14.63;;;8.45;;
3993;SDS011;2011;48.238;13.948;2023-02-28T05:21:48;13.52;;;7.65;;
3993;SDS011;2011;48.238;13.948;2023-02-28T05:24:16;14.65;;;7.40;;
3993;SDS011;2011;48.238;13.948;2023-02-28T05:26:48;16.80;;;8.40;;
3993;SDS011;2011;48.238;13.948;2023-02-28T05:29:17;19.67;;;8.43;;
3993;SDS011;2011;48.238;13.948;2023-02-28T05:31:44;14.27;;;8.68;;
3993;SDS011;2011;48.238;13.948;2023-02-28T05:34:13;13.80;;;8.15;;
3993;SDS011;2011;48.238;13.948;2023-02-28T05:36:41;29.05;;;8.65;;
3993;SDS011;2011;48.238;13.948;2023-02-28T05:39:08;15.15;;;7.55;;
3993;SDS011;2011;48.238;13.948;2023-02-28T05:41:38;12.82;;;7.63;;
3993;SDS011;2011;48.238;13.948;2023-02-28T05:44:05;18.02;;;8.60;;
3993;SDS011;2011;48.238;13.948;2023-02-28T05:46:32;16.33;;;7.78;;
3993;SDS011;2011;48.238;13.948;2023-02-28T05:48:59;15.43;;;8.20;;
3993;SDS011;2011;48.238;13.948;2023-02-28T05:51:28;20.95;;;7.25;;
3993;SDS011;2011;48.238;13.948;2023-02-28T05:53:58;16.30;;;8.45;;
3993;SDS011;2011;48.238;13.948;2023-02-28T05:56:26;14.57;;;7.70;;
3993;SDS011;2011;48.238;13.948;2023-02-28T05:58:53;15.48;;;7.97;;
3993;SDS011;2011;48.238;13.948;2023-02-28T06:01:24;13.77;;;7.85;;
3993;SDS011;2011;48.238;13.948;2023-02-28T06:03:57;16.67;;;7.82;;
3993;SDS011;2011;48.238;13.948;2023-02-28T06:06:24;16.63;;;7.85;;
3993;SDS011;2011;48.238;13.948;2023-02-28T06:08:53;13.82;;;7.13;;
3993;SDS011;2011;48.238;13.948;2023-02-28T06:11:19;19.30;;;8.65;;
3993;SDS011;2011;48.238;13.948;2023-02-28T06:13:46;19.42;;;9.05;;
3993;SDS011;2011;48.238;13.948;2023-02-28T06:16:13;17.33;;;8.40;;
3993;SDS011;2011;48.238;13.948;2023-02-28T06:18:40;18.73;;;9.27;;
3993;SDS011;2011;48.238;13.948;2023-02-28T06:21:07;21.10;;;9.38;;
3993;SDS011;2011;48.238;13.948;2023-02-28T06:23:34;17.17;;;8.05;;
3993;SDS011;2011;48.238;13.948;2023-02-28T06:26:03;13.82;;;7.28;;
3993;SDS011;2011;48.238;13.948;2023-02-28T06:28:30;15.88;;;7.18;;
3993;SDS011;2011;48.238;13.948;2023-02-28T06:30:57;15.95;;;7.30;;
3993;SDS011;2011;48.238;13.948;2023-02-28T06:33:24;13.05;;;7.75;;
3993;SDS011;2011;48.238;13.948;2023-02-28T06:35:52;14.18;;;7.97;;
3993;SDS011;2011;48.238;13.948;2023-02-28T06:38:19;11.63;;;7.00;;
3993;SDS011;2011;48.238;13.948;2023-02-28T06:40:52;14.30;;;7.20;;
3993;SDS011;2011;48.238;13.948;2023-02-28T06:43:21;16.05;;;7.57;;
3993;SDS011;2011;48.238;13.948;2023-02-28T06:45:48;14.38;;;8.30;;
3993;SDS011;2011;48.238;13.948;2023-02-28T06:48:15;13.68;;;7.80;;
3993;SDS011;2011;48.238;13.948;2023-02-28T06:50:42;11.77;;;7.22;;
3993;SDS011;2011;48.238;13.948;2023-02-28T06:53:09;16.48;;;8.55;;
3993;SDS011;2011;48.238;13.948;2023-02-28T06:55:37;17.15;;;7.07;;
3993;SDS011;2011;48.238;13.948;2023-02-28T06:58:04;11.63;;;7.00;;
3993;SDS011;2011;48.238;13.948;2023-02-28T07:00:41;18.27;;;7.40;;
3993;SDS011;2011;48.238;13.948;2023-02-28T07:03:08;16.85;;;7.32;;
3993;SDS011;2011;48.238;13.948;2023-02-28T07:05:35;12.95;;;7.47;;
3993;SDS011;2011;48.238;13.948;2023-02-28T07:08:03;15.10;;;8.00;;
3993;SDS011;2011;48.238;13.948;2023-02-28T07:10:31;16.30;;;8.20;;
3993;SDS011;2011;48.238;13.948;2023-02-28T07:12:59;14.57;;;7.30;;
3993;SDS011;2011;48.238;13.948;2023-02-28T07:15:26;16.35;;;7.95;;
3993;SDS011;2011;48.238;13.948;2023-02-28T07:17:55;14.88;;;7.70;;
3993;SDS011;2011;48.238;13.948;2023-02-28T07:20:22;12.95;;;7.55;;
3993;SDS011;2011;48.238;13.948;2023-02-28T07:22:49;21.13;;;7.10;;
3993;SDS011;2011;48.238;13.948;2023-02-28T07:25:21;10.27;;;6.38;;
3993;SDS011;2011;48.238;13.948;2023-02-28T07:27:48;12.52;;;7.35;;
3993;SDS011;2011;48.238;13.948;2023-02-28T07:30:16;13.38;;;7.65;;
3993;SDS011;2011;48.238;13.948;2023-02-28T07:32:43;15.60;;;7.38;;
3993;SDS011;2011;48.238;13.948;2023-02-28T07:35:11;12.00;;;7.53;;
3993;SDS011;2011;48.238;13.948;2023-02-28T07:37:40;12.35;;;7.18;;
3993;SDS011;2011;48.238;13.948;2023-02-28T07:40:08;14.25;;;7.20;;
3993;SDS011;2011;48.238;13.948;2023-02-28T07:42:38;11.50;;;6.53;;
3993;SDS011;2011;48.238;13.948;2023-02-28T07:45:05;13.32;;;7.13;;
3993;SDS011;2011;48.238;13.948;2023-02-28T07:47:33;14.27;;;7.25;;
3993;SDS011;2011;48.238;13.948;2023-02-28T07:50:00;13.73;;;7.65;;
3993;SDS011;2011;48.238;13.948;2023-02-28T07:52:29;17.45;;;7.50;;
3993;SDS011;2011;48.238;13.948;2023-02-28T07:54:55;11.80;;;6.95;;
3993;SDS011;2011;48.238;13.948;2023-02-28T07:57:22;13.77;;;6.60;;
3993;SDS011;2011;48.238;13.948;2023-02-28T07:59:50;15.60;;;7.35;;
3993;SDS011;2011;48.238;13.948;2023-02-28T08:02:17;14.95;;;8.00;;
3993;SDS011;2011;48.238;13.948;2023-02-28T08:04:45;19.83;;;8.02;;
3993;SDS011;2011;48.238;13.948;2023-02-28T08:07:13;14.35;;;7.13;;
3993;SDS011;2011;48.238;13.948;2023-02-28T08:09:41;13.70;;;7.05;;
3993;SDS011;2011;48.238;13.948;2023-02-28T08:12:09;16.38;;;7.65;;
3993;SDS011;2011;48.238;13.948;2023-02-28T08:14:36;13.60;;;7.60;;
3993;SDS011;2011;48.238;13.948;2023-02-28T08:17:04;17.17;;;7.57;;
3993;SDS011;2011;48.238;13.948;2023-02-28T08:19:32;22.38;;;8.38;;
3993;SDS011;2011;48.238;13.948;2023-02-28T08:21:59;15.35;;;6.93;;
3993;SDS011;2011;48.238;13.948;2023-02-28T08:24:26;12.65;;;7.65;;
3993;SDS011;2011;48.238;13.948;2023-02-28T08:26:54;18.27;;;8.68;;
3993;SDS011;2011;48.238;13.948;2023-02-28T08:29:22;17.05;;;7.95;;
3993;SDS011;2011;48.238;13.948;2023-02-28T08:31:49;14.05;;;7.93;;
3993;SDS011;2011;48.238;13.948;2023-02-28T08:34:16;15.40;;;7.43;;
3993;SDS011;2011;48.238;13.948;2023-02-28T08:36:43;14.88;;;7.95;;
3993;SDS011;2011;48.238;13.948;2023-02-28T08:39:11;14.40;;;7.50;;
3993;SDS011;2011;48.238;13.948;2023-02-28T08:41:38;11.95;;;7.57;;
3993;SDS011;2011;48.238;13.948;2023-02-28T08:44:06;13.15;;;7.07;;
3993;SDS011;2011;48.238;13.948;2023-02-28T08:46:33;11.82;;;7.38;;
3993;SDS011;2011;48.238;13.948;2023-02-28T08:49:00;15.32;;;8.30;;
3993;SDS011;2011;48.238;13.948;2023-02-28T08:51:28;15.65;;;7.70;;
3993;SDS011;2011;48.238;13.948;2023-02-28T08:53:56;14.35;;;8.40;;
3993;SDS011;2011;48.238;13.948;2023-02-28T08:56:26;14.82;;;8.10;;
3993;SDS011;2011;48.238;13.948;2023-02-28T08:58:55;12.85;;;7.35;;
3993;SDS011;2011;48.238;13.948;2023-02-28T09:01:26;14.10;;;7.47;;
3993;SDS011;2011;48.238;13.948;2023-02-28T09:03:54;13.82;;;7.22;;
3993;SDS011;2011;48.238;13.948;2023-02-28T09:06:23;13.30;;;7.97;;
3993;SDS011;2011;48.238;13.948;2023-02-28T09:08:51;13.90;;;7.65;;
3993;SDS011;2011;48.238;13.948;2023-02-28T09:11:19;14.55;;;8.55;;
3993;SDS011;2011;48.238;13.948;2023-02-28T09:13:46;17.45;;;8.15;;
3993;SDS011;2011;48.238;13.948;2023-02-28T09:16:14;16.13;;;8.38;;
3993;SDS011;2011;48.238;13.948;2023-02-28T09:18:43;15.32;;;7.70;;
3993;SDS011;2011;48.238;13.948;2023-02-28T09:21:12;13.02;;;7.40;;
3993;SDS011;2011;48.238;13.948;2023-02-28T09:23:40;18.60;;;8.38;;
3993;SDS011;2011;48.238;13.948;2023-02-28T09:26:08;18.53;;;8.63;;
3993;SDS011;2011;48.238;13.948;2023-02-28T09:28:40;21.57;;;8.10;;
3993;SDS011;2011;48.238;13.948;2023-02-28T09:31:10;20.23;;;8.87;;
3993;SDS011;2011;48.238;13.948;2023-02-28T09:33:38;12.50;;;6.80;;
3993;SDS011;2011;48.238;13.948;2023-02-28T09:36:07;14.43;;;8.60;;
3993;SDS011;2011;48.238;13.948;2023-02-28T09:38:35;15.40;;;9.00;;
3993;SDS011;2011;48.238;13.948;2023-02-28T09:41:03;16.77;;;8.97;;
3993;SDS011;2011;48.238;13.948;2023-02-28T09:43:38;16.23;;;8.00;;
3993;SDS011;2011;48.238;13.948;2023-02-28T09:46:12;12.70;;;7.87;;
3993;SDS011;2011;48.238;13.948;2023-02-28T09:48:48;14.07;;;7.60;;
3993;SDS011;2011;48.238;13.948;2023-02-28T09:51:26;14.07;;;8.13;;
3993;SDS011;2011;48.238;13.948;2023-02-28T09:53:59;13.03;;;7.93;;
3993;SDS011;2011;48.238;13.948;2023-02-28T09:56:28;12.47;;;8.50;;
3993;SDS011;2011;48.238;13.948;2023-02-28T09:59:00;15.70;;;8.10;;
3993;SDS011;2011;48.238;13.948;2023-02-28T10:01:32;13.03;;;8.07;;
3993;SDS011;2011;48.238;13.948;2023-02-28T10:04:04;12.97;;;7.73;;
3993;SDS011;2011;48.238;13.948;2023-02-28T10:06:41;17.00;;;8.60;;
3993;SDS011;2011;48.238;13.948;2023-02-28T10:09:13;14.73;;;7.90;;
3993;SDS011;2011;48.238;13.948;2023-02-28T10:11:45;16.07;;;8.03;;
3993;SDS011;2011;48.238;13.948;2023-02-28T10:14:15;13.50;;;8.40;;
3993;SDS011;2011;48.238;13.948;2023-02-28T10:16:46;13.63;;;8.60;;
3993;SDS011;2011;48.238;13.948;2023-02-28T10:19:19;13.13;;;7.90;;
3993;SDS011;2011;48.238;13.948;2023-02-28T10:21:53;14.70;;;8.90;;
3993;SDS011;2011;48.238;13.948;2023-02-28T10:24:25;13.10;;;8.23;;
3993;SDS011;2011;48.238;13.948;2023-02-28T10:26:58;18.87;;;8.83;;
3993;SDS011;2011;48.238;13.948;2023-02-28T10:29:27;12.77;;;8.10;;
3993;SDS011;2011;48.238;13.948;2023-02-28T10:31:58;19.53;;;8.40;;
3993;SDS011;2011;48.238;13.948;2023-02-28T10:34:27;13.93;;;8.00;;
3993;SDS011;2011;48.238;13.948;2023-02-28T10:36:56;16.57;;;7.83;;
3993;SDS011;2011;48.238;13.948;2023-02-28T10:39:36;14.83;;;8.23;;
3993;SDS011;2011;48.238;13.948;2023-02-28T10:42:05;14.43;;;8.40;;
3993;SDS011;2011;48.238;13.948;2023-02-28T10:44:45;14.00;;;8.57;;
3993;SDS011;2011;48.238;13.948;2023-02-28T10:47:13;16.73;;;8.70;;
3993;SDS011;2011;48.238;13.948;2023-02-28T10:49:46;20.00;;;10.57;;
3993;SDS011;2011;48.238;13.948;2023-02-28T10:52:15;17.30;;;9.40;;
3993;SDS011;2011;48.238;13.948;2023-02-28T10:55:13;11.83;;;7.73;;
3993;SDS011;2011;48.238;13.948;2023-02-28T10:57:41;14.67;;;8.10;;
3993;SDS011;2011;48.238;13.948;2023-02-28T11:00:12;15.50;;;8.50;;
3993;SDS011;2011;48.238;13.948;2023-02-28T11:02:42;15.77;;;8.67;;
3993;SDS011;2011;48.238;13.948;2023-02-28T11:05:24;15.43;;;8.70;;
3993;SDS011;2011;48.238;13.948;2023-02-28T11:07:55;14.40;;;8.80;;
3993;SDS011;2011;48.238;13.948;2023-02-28T11:10:29;14.87;;;8.00;;
3993;SDS011;2011;48.238;13.948;2023-02-28T11:13:00;16.60;;;9.10;;
3993;SDS011;2011;48.238;13.948;2023-02-28T11:15:29;16.60;;;8.83;;
3993;SDS011;2011;48.238;13.948;2023-02-28T11:17:58;17.23;;;9.27;;
3993;SDS011;2011;48.238;13.948;2023-02-28T11:20:27;15.70;;;9.03;;
3993;SDS011;2011;48.238;13.948;2023-02-28T11:22:58;17.60;;;9.40;;
3993;SDS011;2011;48.238;13.948;2023-02-28T11:25:28;14.03;;;8.70;;
3993;SDS011;2011;48.238;13.948;2023-02-28T11:27:57;14.60;;;9.10;;
3993;SDS011;2011;48.238;13.948;2023-02-28T11:30:27;13.03;;;8.00;;
3993;SDS011;2011;48.238;13.948;2023-02-28T11:33:00;14.70;;;8.93;;
3993;SDS011;2011;48.238;13.948;2023-02-28T11:35:44;12.77;;;8.40;;
3993;SDS011;2011;48.238;13.948;2023-02-28T11:38:15;16.83;;;8.40;;
3993;SDS011;2011;48.238;13.948;2023-02-28T11:40:43;17.43;;;8.90;;
3993;SDS011;2011;48.238;13.948;2023-02-28T11:43:21;15.60;;;8.77;;
3993;SDS011;2011;48.238;13.948;2023-02-28T11:48:48;15.03;;;8.47;;
3993;SDS011;2011;48.238;13.948;2023-02-28T11:51:21;17.07;;;8.73;;
3993;SDS011;2011;48.238;13.948;2023-02-28T11:56:47;15.53;;;8.60;;
3993;SDS011;2011;48.238;13.948;2023-02-28T11:59:24;16.27;;;8.70;;
3993;SDS011;2011;48.238;13.948;2023-02-28T12:02:13;14.17;;;8.80;;
3993;SDS011;2011;48.238;13.948;2023-02-28T12:04:52;12.83;;;7.80;;
3993;SDS011;2011;48.238;13.948;2023-02-28T12:07:30;15.50;;;8.57;;
3993;SDS011;2011;48.238;13.948;2023-02-28T12:10:06;12.07;;;8.17;;
3993;SDS011;2011;48.238;13.948;2023-02-28T12:12:47;13.47;;;8.60;;
3993;SDS011;2011;48.238;13.948;2023-02-28T12:15:28;14.67;;;8.40;;
3993;SDS011;2011;48.238;13.948;2023-02-28T12:18:08;17.53;;;9.07;;
3993;SDS011;2011;48.238;13.948;2023-02-28T12:20:53;14.67;;;8.60;;
3993;SDS011;2011;48.238;13.948;2023-02-28T12:26:36;14.23;;;8.33;;
3993;SDS011;2011;48.238;13.948;2023-02-28T12:29:09;15.83;;;8.30;;
3993;SDS011;2011;48.238;13.948;2023-02-28T12:31:41;12.43;;;7.90;;
3993;SDS011;2011;48.238;13.948;2023-02-28T12:34:15;15.47;;;8.33;;
3993;SDS011;2011;48.238;13.948;2023-02-28T12:36:46;14.33;;;9.20;;
3993;SDS011;2011;48.238;13.948;2023-02-28T12:39:15;15.13;;;9.00;;
3993;SDS011;2011;48.238;13.948;2023-02-28T12:41:49;14.60;;;8.77;;
3993;SDS011;2011;48.238;13.948;2023-02-28T12:44:20;14.83;;;8.87;;
3993;SDS011;2011;48.238;13.948;2023-02-28T12:46:54;15.40;;;8.57;;
3993;SDS011;2011;48.238;13.948;2023-02-28T12:49:25;12.97;;;8.43;;
3993;SDS011;2011;48.238;13.948;2023-02-28T12:51:57;12.47;;;8.10;;
3993;SDS011;2011;48.238;13.948;2023-02-28T12:54:27;16.90;;;8.60;;
3993;SDS011;2011;48.238;13.948;2023-02-28T12:57:03;12.50;;;8.80;;
3993;SDS011;2011;48.238;13.948;2023-02-28T12:59:38;12.70;;;7.63;;
3993;SDS011;2011;48.238;13.948;2023-02-28T13:02:31;13.80;;;8.00;;
3993;SDS011;2011;48.238;13.948;2023-02-28T13:11:23;13.53;;;7.90;;
3993;SDS011;2011;48.238;13.948;2023-02-28T13:13:59;13.13;;;8.50;;
3993;SDS011;2011;48.238;13.948;2023-02-28T13:16:28;18.20;;;8.63;;
3993;SDS011;2011;48.238;13.948;2023-02-28T13:19:22;14.07;;;8.70;;
3993;SDS011;2011;48.238;13.948;2023-02-28T13:21:51;18.27;;;9.83;;
3993;SDS011;2011;48.238;13.948;2023-02-28T13:24:39;15.10;;;10.07;;
3993;SDS011;2011;48.238;13.948;2023-02-28T13:33:24;15.00;;;9.10;;
3993;SDS011;2011;48.238;13.948;2023-02-28T13:36:09;12.27;;;8.03;;
3993;SDS011;2011;48.238;13.948;2023-02-28T13:38:48;14.27;;;9.23;;
3993;SDS011;2011;48.238;13.948;2023-02-28T13:41:40;15.33;;;8.83;;
3993;SDS011;2011;48.238;13.948;2023-02-28T13:44:08;15.20;;;9.47;;
3993;SDS011;2011;48.238;13.948;2023-02-28T13:46:38;17.23;;;9.30;;
3993;SDS011;2011;48.238;13.948;2023-02-28T13:49:43;13.23;;;8.80;;
3993;SDS011;2011;48.238;13.948;2023-02-28T13:52:12;15.43;;;8.43;;
3993;SDS011;2011;48.238;13.948;2023-02-28T13:54:56;16.80;;;9.80;;
3993;SDS011;2011;48.238;13.948;2023-02-28T13:57:41;15.17;;;9.03;;
3993;SDS011;2011;48.238;13.948;2023-02-28T14:00:22;15.70;;;9.77;;
3993;SDS011;2011;48.238;13.948;2023-02-28T14:03:05;15.13;;;9.63;;
3993;SDS011;2011;48.238;13.948;2023-02-28T14:05:41;14.83;;;9.63;;
3993;SDS011;2011;48.238;13.948;2023-02-28T14:08:10;14.53;;;9.37;;
3993;SDS011;2011;48.238;13.948;2023-02-28T14:10:42;13.90;;;8.70;;
3993;SDS011;2011;48.238;13.948;2023-02-28T14:13:12;14.40;;;8.80;;
3993;SDS011;2011;48.238;13.948;2023-02-28T14:15:57;13.50;;;8.83;;
3993;SDS011;2011;48.238;13.948;2023-02-28T14:18:28;15.07;;;8.70;;
3993;SDS011;2011;48.238;13.948;2023-02-28T14:21:01;16.03;;;9.50;;
3993;SDS011;2011;48.238;13.948;2023-02-28T14:23:50;18.63;;;10.00;;
3993;SDS011;2011;48.238;13.948;2023-02-28T14:26:44;13.17;;;8.67;;
3993;SDS011;2011;48.238;13.948;2023-02-28T14:29:33;14.90;;;8.50;;
3993;SDS011;2011;48.238;13.948;2023-02-28T14:32:22;15.17;;;10.00;;
3993;SDS011;2011;48.238;13.948;2023-02-28T14:34:55;13.23;;;8.70;;
3993;SDS011;2011;48.238;13.948;2023-02-28T14:37:32;16.30;;;9.80;;
3993;SDS011;2011;48.238;13.948;2023-02-28T14:40:04;13.60;;;9.00;;
3993;SDS011;2011;48.238;13.948;2023-02-28T14:42:46;13.03;;;8.27;;
3993;SDS011;2011;48.238;13.948;2023-02-28T14:45:17;13.00;;;8.43;;
3993;SDS011;2011;48.238;13.948;2023-02-28T14:47:46;14.23;;;8.57;;
3993;SDS011;2011;48.238;13.948;2023-02-28T14:50:18;19.33;;;10.30;;
3993;SDS011;2011;48.238;13.948;2023-02-28T14:52:49;17.57;;;10.30;;
3993;SDS011;2011;48.238;13.948;2023-02-28T14:55:19;17.40;;;11.13;;
3993;SDS011;2011;48.238;13.948;2023-02-28T14:57:51;21.37;;;9.40;;
3993;SDS011;2011;48.238;13.948;2023-02-28T15:00:21;17.90;;;10.77;;
3993;SDS011;2011;48.238;13.948;2023-02-28T15:02:50;18.60;;;11.30;;
3993;SDS011;2011;48.238;13.948;2023-02-28T15:05:27;28.37;;;12.37;;
3993;SDS011;2011;48.238;13.948;2023-02-28T15:08:09;21.20;;;11.90;;
3993;SDS011;2011;48.238;13.948;2023-02-28T15:10:39;21.30;;;12.57;;
3993;SDS011;2011;48.238;13.948;2023-02-28T15:13:10;18.83;;;11.73;;
3993;SDS011;2011;48.238;13.948;2023-02-28T15:15:44;23.13;;;11.57;;
3993;SDS011;2011;48.238;13.948;2023-02-28T15:18:21;21.70;;;12.57;;
3993;SDS011;2011;48.238;13.948;2023-02-28T15:20:52;26.47;;;13.23;;
3993;SDS011;2011;48.238;13.948;2023-02-28T15:23:23;21.97;;;12.03;;
3993;SDS011;2011;48.238;13.948;2023-02-28T15:25:50;27.53;;;13.67;;
3993;SDS011;2011;48.238;13.948;2023-02-28T15:28:19;24.40;;;13.67;;
3993;SDS011;2011;48.238;13.948;2023-02-28T15:30:52;24.33;;;14.10;;
3993;SDS011;2011;48.238;13.948;2023-02-28T15:33:22;22.53;;;13.10;;
3993;SDS011;2011;48.238;13.948;2023-02-28T15:35:51;23.50;;;13.17;;
3993;SDS011;2011;48.238;13.948;2023-02-28T15:38:32;19.67;;;11.80;;
3993;SDS011;2011;48.238;13.948;2023-02-28T15:41:01;20.73;;;12.03;;